createdAt,value
2018-05-21T00:00:55.552Z,91.80
2018-05-21T00:03:23.050Z,91.80
2018-05-21T00:05:50.567Z,92.00
2018-05-21T00:08:18.067Z,91.70
2018-05-21T00:10:45.578Z,92.20
2018-05-21T00:13:13.850Z,91.70
2018-05-21T00:15:42.112Z,91.70
2018-05-21T00:18:09.643Z,91.70
2018-05-21T00:20:37.151Z,92.10
2018-05-21T00:23:04.660Z,91.80
2018-05-21T00:25:32.148Z,91.60
2018-05-21T00:28:00.424Z,91.80
2018-05-21T00:30:28.691Z,92.10
2018-05-21T00:32:56.205Z,91.70
2018-05-21T00:35:23.706Z,91.70
2018-05-21T00:37:51.218Z,92.00
2018-05-21T00:40:18.720Z,92.10
2018-05-21T00:42:47.002Z,92.10
2018-05-21T00:45:14.509Z,92.10
2018-05-21T00:47:42.014Z,92.00
2018-05-21T00:50:09.526Z,91.90
2018-05-21T00:52:37.040Z,91.90
2018-05-21T00:55:16.452Z,92.30
2018-05-21T00:57:43.955Z,92.10
2018-05-21T01:00:11.466Z,91.90
2018-05-21T01:02:38.995Z,91.90
2018-05-21T01:05:06.572Z,91.70
2018-05-21T01:07:34.021Z,91.80
2018-05-21T01:10:01.519Z,92.10
2018-05-21T01:12:29.017Z,92.00
2018-05-21T01:14:56.531Z,92.00
2018-05-21T01:17:24.043Z,91.80
2018-05-21T01:19:51.709Z,92.00
2018-05-21T01:22:19.217Z,92.10
2018-05-21T01:24:46.719Z,92.10
2018-05-21T01:27:14.239Z,91.70
2018-05-21T01:29:41.735Z,91.70
2018-05-21T01:32:09.262Z,91.50
2018-05-21T01:34:37.552Z,91.30
2018-05-21T01:37:05.841Z,91.50
2018-05-21T01:39:33.363Z,91.50
2018-05-21T01:42:00.865Z,91.70
2018-05-21T01:44:28.399Z,91.60
2018-05-21T01:46:56.664Z,91.80
2018-05-21T01:49:24.944Z,91.70
2018-05-21T01:51:53.214Z,92.10
2018-05-21T01:54:21.487Z,92.40
2018-05-21T01:56:49.795Z,92.20
2018-05-21T01:59:17.287Z,92.00
2018-05-21T02:01:44.808Z,92.00
2018-05-21T02:04:12.302Z,91.70
2018-05-21T02:06:39.814Z,91.50
2018-05-21T02:09:08.107Z,91.70
2018-05-21T02:11:35.607Z,91.70
2018-05-21T02:14:03.140Z,91.80
2018-05-21T02:16:30.643Z,91.70
2018-05-21T02:18:58.143Z,91.50
2018-05-21T02:21:25.724Z,91.40
2018-05-21T02:23:53.154Z,91.50
2018-05-21T02:26:20.686Z,91.50
2018-05-21T02:28:48.945Z,91.50
2018-05-21T02:31:16.456Z,91.50
2018-05-21T02:33:43.997Z,91.60
2018-05-21T02:36:11.506Z,91.50
2018-05-21T02:38:39.034Z,91.50
2018-05-21T02:41:06.535Z,91.40
2018-05-21T02:43:34.054Z,91.40
2018-05-21T02:46:01.558Z,91.30
2018-05-21T02:48:29.053Z,91.50
2018-05-21T02:50:56.557Z,91.80
2018-05-21T02:53:24.045Z,91.60
2018-05-21T02:55:52.339Z,91.50
2018-05-21T02:58:19.844Z,91.50
2018-05-21T03:00:47.337Z,91.50
2018-05-21T03:03:15.605Z,91.70
2018-05-21T03:05:43.878Z,91.70
2018-05-21T03:08:11.395Z,91.70
2018-05-21T03:10:38.899Z,92.10
2018-05-21T03:13:07.186Z,92.40
2018-05-21T03:15:35.459Z,91.80
2018-05-21T03:18:03.731Z,91.70
2018-05-21T03:20:32.052Z,92.10
2018-05-21T03:22:59.595Z,91.80
2018-05-21T03:25:27.129Z,91.70
2018-05-21T03:27:55.400Z,91.50
2018-05-21T03:30:23.679Z,91.60
2018-05-21T03:32:52.047Z,92.50
2018-05-21T03:35:19.621Z,92.50
2018-05-21T03:37:48.867Z,92.60
2018-05-21T03:40:16.474Z,92.50
2018-05-21T03:42:44.002Z,92.10
2018-05-21T03:45:11.589Z,91.90
2018-05-21T03:47:39.110Z,91.70
2018-05-21T03:50:06.690Z,91.60
2018-05-21T03:52:34.206Z,91.70
2018-05-21T03:55:02.425Z,92.00
2018-05-21T03:57:29.943Z,92.00
2018-05-21T04:00:09.298Z,91.90
2018-05-21T04:02:48.651Z,92.00
2018-05-21T04:05:16.250Z,91.80
2018-05-21T04:07:44.547Z,92.00
2018-05-21T04:10:12.050Z,92.00
2018-05-21T04:12:39.569Z,91.90
2018-05-21T04:15:07.087Z,91.80
2018-05-21T04:17:35.401Z,91.80
2018-05-21T04:20:02.926Z,91.40
2018-05-21T04:22:31.255Z,91.60
2018-05-21T04:24:58.803Z,91.50
2018-05-21T04:27:26.359Z,91.60
2018-05-21T04:29:53.932Z,91.80
2018-05-21T04:32:21.465Z,91.90
2018-05-21T04:34:48.989Z,91.80
2018-05-21T04:37:16.530Z,91.80
2018-05-21T04:39:44.049Z,91.80
2018-05-21T04:42:11.594Z,91.60
2018-05-21T04:44:39.113Z,91.60
2018-05-21T04:47:06.623Z,91.50
2018-05-21T04:49:34.130Z,91.60
2018-05-21T04:52:01.624Z,91.50
2018-05-21T04:54:29.146Z,91.60
2018-05-21T04:56:56.667Z,91.60
2018-05-21T04:59:24.172Z,91.50
2018-05-21T05:01:52.533Z,91.80
2018-05-21T05:04:20.047Z,91.80
2018-05-21T05:06:47.575Z,91.80
2018-05-21T05:09:15.053Z,91.70
2018-05-21T05:11:42.555Z,91.30
2018-05-21T05:14:10.070Z,91.50
2018-05-21T05:16:37.576Z,91.40
2018-05-21T05:19:05.084Z,91.30
2018-05-21T05:21:32.588Z,91.20
2018-05-21T05:24:00.087Z,91.10
2018-05-21T05:26:28.357Z,91.00
2018-05-21T05:28:55.865Z,91.00
2018-05-21T05:31:23.384Z,90.80
2018-05-21T05:33:51.742Z,91.00
2018-05-21T05:36:19.232Z,90.90
2018-05-21T05:38:46.763Z,90.90
2018-05-21T05:41:14.262Z,90.90
2018-05-21T05:43:41.780Z,91.30
2018-05-21T05:46:09.279Z,91.20
2018-05-21T05:48:36.793Z,91.60
2018-05-21T05:51:04.302Z,91.60
2018-05-21T05:53:31.869Z,91.90
2018-05-21T05:55:59.392Z,91.60
2018-05-21T05:58:27.643Z,91.70
2018-05-21T06:00:55.169Z,91.70
2018-05-21T06:03:22.665Z,91.80
2018-05-21T06:05:50.305Z,91.70
2018-05-21T06:08:17.821Z,91.70
2018-05-21T06:10:45.424Z,91.50
2018-05-21T06:13:12.969Z,91.50
2018-05-21T06:15:40.635Z,91.70
2018-05-21T06:18:08.229Z,91.70
2018-05-21T06:20:35.792Z,91.60
2018-05-21T06:23:03.328Z,91.70
2018-05-21T06:25:30.923Z,92.20
2018-05-21T06:27:59.245Z,91.90
2018-05-21T06:30:26.863Z,91.80
2018-05-21T06:32:55.196Z,91.60
2018-05-21T06:35:22.817Z,91.70
2018-05-21T06:37:50.549Z,91.40
2018-05-21T06:40:18.108Z,91.50
2018-05-21T06:42:45.826Z,91.50
2018-05-21T06:45:13.414Z,91.30
2018-05-21T06:47:40.991Z,91.40
2018-05-21T06:50:10.610Z,91.50
2018-05-21T06:52:40.655Z,91.40
2018-05-21T06:55:08.299Z,91.40
2018-05-21T06:57:36.669Z,91.40
2018-05-21T07:00:04.293Z,91.40
2018-05-21T07:02:31.859Z,91.40
2018-05-21T07:04:59.425Z,91.20
2018-05-21T07:07:39.081Z,91.30
2018-05-21T07:10:06.626Z,90.50
2018-05-21T07:12:38.375Z,91.00
2018-05-21T07:15:06.061Z,91.20
2018-05-21T07:17:37.098Z,90.20
2018-05-21T07:20:04.605Z,90.20
2018-05-21T07:22:32.285Z,88.80
2018-05-21T07:24:59.845Z,87.40
2018-05-21T07:27:27.447Z,88.20
2018-05-21T07:29:55.752Z,85.60
2018-05-21T07:32:23.248Z,85.60
2018-05-21T07:34:50.782Z,85.80
2018-05-21T07:37:18.317Z,84.70
2018-05-21T07:39:46.595Z,76.90
2018-05-21T07:42:14.085Z,76.60
2018-05-21T07:44:41.710Z,76.60
2018-05-21T07:47:09.214Z,74.80
2018-05-21T07:49:36.742Z,69.00
2018-05-21T07:52:04.343Z,70.00
2018-05-21T07:54:33.314Z,70.80
2018-05-21T07:57:00.858Z,60.50
2018-05-21T07:59:30.619Z,60.40
2018-05-21T08:01:58.210Z,58.20
2018-05-21T08:04:26.535Z,53.00
2018-05-21T08:06:54.199Z,53.10
2018-05-21T08:09:22.166Z,48.30
2018-05-21T08:11:50.381Z,45.40
2018-05-21T08:14:19.495Z,46.20
2018-05-21T08:16:47.079Z,47.40
2018-05-21T08:19:14.668Z,47.80
2018-05-21T08:21:42.263Z,41.50
2018-05-21T08:24:09.762Z,44.20
2018-05-21T08:26:37.287Z,44.20
2018-05-21T08:29:04.785Z,40.10
2018-05-21T08:31:32.541Z,40.90
2018-05-21T08:34:00.100Z,40.20
2018-05-21T08:36:29.448Z,36.00
2018-05-21T08:38:57.720Z,38.10
2018-05-21T08:41:25.220Z,38.10
2018-05-21T08:43:52.731Z,38.40
2018-05-21T08:46:24.174Z,39.30
2018-05-21T08:48:51.806Z,37.80
2018-05-21T08:51:19.303Z,37.30
2018-05-21T08:53:46.807Z,36.20
2018-05-21T08:56:14.481Z,36.70
2018-05-21T08:58:42.100Z,37.60
2018-05-21T09:01:09.600Z,36.10
2018-05-21T09:03:37.090Z,35.40
2018-05-21T09:06:04.591Z,36.00
2018-05-21T09:08:32.091Z,33.70
2018-05-21T09:10:59.598Z,35.20
2018-05-21T09:13:27.865Z,33.90
2018-05-21T09:15:56.181Z,32.70
2018-05-21T09:18:23.707Z,32.70
2018-05-21T09:20:51.965Z,35.10
2018-05-21T09:23:19.576Z,35.20
2018-05-21T09:25:47.064Z,35.50
2018-05-21T09:28:14.546Z,35.30
2018-05-21T09:30:42.828Z,33.20
2018-05-21T09:33:11.100Z,35.90
2018-05-21T09:35:39.379Z,33.70
2018-05-21T09:38:07.651Z,35.50
2018-05-21T09:40:35.906Z,35.20
2018-05-21T09:43:03.414Z,35.10
2018-05-21T09:45:30.987Z,36.60
2018-05-21T09:47:58.505Z,36.10
2018-05-21T09:50:28.281Z,34.30
2018-05-21T09:52:55.766Z,34.30
2018-05-21T09:55:23.264Z,33.00
2018-05-21T09:57:50.745Z,33.60
2018-05-21T10:00:18.264Z,35.90
2018-05-21T10:02:45.762Z,32.20
2018-05-21T10:05:13.359Z,35.50
2018-05-21T10:07:40.873Z,34.60
2018-05-21T10:10:08.357Z,34.60
2018-05-21T10:12:35.869Z,34.40
2018-05-21T10:15:03.375Z,36.80
2018-05-21T10:17:30.900Z,29.80
2018-05-21T10:19:59.066Z,33.70
2018-05-21T10:22:26.585Z,34.70
2018-05-21T10:24:54.121Z,34.30
2018-05-21T10:27:21.609Z,30.80
2018-05-21T10:29:49.899Z,34.40
2018-05-21T10:32:17.424Z,34.40
2018-05-21T10:34:44.941Z,32.60
2018-05-21T10:37:12.491Z,35.30
2018-05-21T10:39:40.000Z,29.60
2018-05-21T10:42:07.535Z,30.90
2018-05-21T10:44:35.183Z,32.90
2018-05-21T10:47:02.706Z,30.80
2018-05-21T10:49:30.251Z,35.50
2018-05-21T10:51:59.675Z,31.10
2018-05-21T10:54:27.944Z,34.60
2018-05-21T10:56:55.443Z,34.70
2018-05-21T10:59:22.977Z,33.90
2018-05-21T11:01:50.502Z,32.60
2018-05-21T11:04:18.783Z,35.60
2018-05-21T11:06:46.310Z,35.50
2018-05-21T11:09:13.805Z,36.10
2018-05-21T11:11:42.091Z,36.50
2018-05-21T11:14:10.827Z,32.80
2018-05-21T11:16:38.325Z,32.80
2018-05-21T11:19:06.800Z,33.90
2018-05-21T11:21:34.309Z,33.90
2018-05-21T11:24:02.671Z,35.30
2018-05-21T11:26:30.157Z,35.20
2018-05-21T11:28:57.669Z,37.00
2018-05-21T11:31:25.918Z,37.80
2018-05-21T11:33:54.201Z,36.60
2018-05-21T11:36:21.713Z,36.60
2018-05-21T11:38:49.200Z,35.30
2018-05-21T11:41:16.725Z,36.30
2018-05-21T11:43:44.229Z,37.80
2018-05-21T11:46:11.725Z,35.60
2018-05-21T11:48:39.230Z,37.30
2018-05-21T11:51:06.717Z,34.30
2018-05-21T11:53:34.980Z,34.30
2018-05-21T11:56:02.460Z,34.30
2018-05-21T11:58:30.742Z,34.80
2018-05-21T12:00:58.988Z,34.40
2018-05-21T12:03:26.486Z,34.40
2018-05-21T12:05:53.992Z,37.80
2018-05-21T12:08:21.476Z,37.40
2018-05-21T12:10:49.756Z,38.30
2018-05-21T12:13:18.017Z,37.60
2018-05-21T12:15:45.505Z,37.60
2018-05-21T12:18:13.027Z,41.20
2018-05-21T12:20:40.536Z,35.50
2018-05-21T12:23:08.045Z,37.50
2018-05-21T12:25:35.526Z,34.40
2018-05-21T12:28:03.790Z,38.20
2018-05-21T12:30:32.057Z,36.60
2018-05-21T12:32:59.582Z,36.50
2018-05-21T12:35:27.085Z,35.40
2018-05-21T12:37:55.450Z,34.40
2018-05-21T12:40:22.941Z,34.30
2018-05-21T12:42:50.484Z,34.70
2018-05-21T12:45:19.229Z,33.30
2018-05-21T12:47:46.745Z,33.40
2018-05-21T12:50:15.009Z,28.90
2018-05-21T12:52:43.281Z,31.50
2018-05-21T12:55:11.590Z,28.60
2018-05-21T12:57:39.095Z,28.70
2018-05-21T13:00:06.589Z,29.20
2018-05-21T13:02:34.845Z,32.50
2018-05-21T13:05:03.134Z,35.90
2018-05-21T13:07:31.450Z,38.50
2018-05-21T13:09:59.069Z,38.40
2018-05-21T13:12:27.341Z,41.00
2018-05-21T13:14:55.613Z,40.40
2018-05-21T13:17:23.181Z,40.30
2018-05-21T13:19:51.459Z,42.30
2018-05-21T13:22:19.725Z,42.30
2018-05-21T13:24:48.093Z,42.20
2018-05-21T13:27:15.612Z,42.00
2018-05-21T13:29:43.362Z,43.10
2018-05-21T13:32:10.862Z,42.70
2018-05-21T13:34:38.499Z,43.60
2018-05-21T13:37:05.999Z,43.60
2018-05-21T13:39:34.258Z,43.40
2018-05-21T13:42:01.760Z,43.20
2018-05-21T13:44:30.085Z,43.50
2018-05-21T13:46:57.590Z,43.40
2018-05-21T13:49:25.081Z,44.30
2018-05-21T13:51:53.621Z,44.40
2018-05-21T13:54:21.898Z,43.10
2018-05-21T13:56:50.163Z,41.80
2018-05-21T13:59:17.680Z,41.80
2018-05-21T14:01:45.176Z,44.20
2018-05-21T14:04:12.679Z,43.10
2018-05-21T14:06:40.176Z,42.50
2018-05-21T14:09:07.671Z,42.10
2018-05-21T14:11:35.953Z,41.90
2018-05-21T14:14:04.212Z,40.80
2018-05-21T14:16:32.488Z,41.80
2018-05-21T14:19:00.771Z,41.20
2018-05-21T14:21:29.104Z,41.80
2018-05-21T14:23:56.598Z,41.70
2018-05-21T14:26:24.855Z,42.50
2018-05-21T14:28:52.376Z,42.40
2018-05-21T14:31:19.864Z,42.00
2018-05-21T14:33:47.355Z,40.90
2018-05-21T14:36:15.622Z,41.50
2018-05-21T14:38:43.887Z,40.40
2018-05-21T14:41:11.402Z,40.40
2018-05-21T14:43:38.900Z,41.80
2018-05-21T14:46:06.397Z,37.90
2018-05-21T14:48:33.900Z,38.10
2018-05-21T14:51:01.397Z,38.30
2018-05-21T14:53:29.694Z,36.60
2018-05-21T14:55:57.180Z,36.60
2018-05-21T14:58:24.674Z,35.60
2018-05-21T15:00:52.173Z,37.00
2018-05-21T15:03:19.840Z,36.70
2018-05-21T15:05:47.357Z,36.30
2018-05-21T15:08:15.639Z,32.90
2018-05-21T15:10:43.906Z,32.60
2018-05-21T15:13:12.182Z,32.80
2018-05-21T15:15:39.677Z,32.80
2018-05-21T15:18:07.184Z,33.20
2018-05-21T15:20:36.184Z,36.30
2018-05-21T15:23:03.698Z,36.30
2018-05-21T15:25:31.223Z,35.90
2018-05-21T15:27:59.492Z,39.00
2018-05-21T15:30:27.766Z,39.70
2018-05-21T15:32:56.039Z,40.70
2018-05-21T15:35:24.285Z,40.90
2018-05-21T15:37:51.794Z,40.90
2018-05-21T15:40:19.277Z,41.50
2018-05-21T15:42:46.802Z,42.90
2018-05-21T15:45:15.075Z,43.30
2018-05-21T15:47:43.341Z,44.40
2018-05-21T15:50:11.628Z,46.00
2018-05-21T15:52:39.890Z,44.90
2018-05-21T15:55:07.406Z,44.90
2018-05-21T15:57:34.973Z,46.40
2018-05-21T16:00:03.169Z,46.40
2018-05-21T16:02:30.690Z,46.40
2018-05-21T16:04:58.182Z,47.10
2018-05-21T16:07:25.759Z,47.70
2018-05-21T16:09:53.201Z,48.10
2018-05-21T16:12:20.698Z,49.50
2018-05-21T16:14:48.222Z,47.80
2018-05-21T16:17:16.486Z,46.40
2018-05-21T16:19:43.988Z,46.40
2018-05-21T16:22:12.237Z,43.50
2018-05-21T16:24:41.271Z,44.70
2018-05-21T16:27:08.777Z,45.30
2018-05-21T16:29:36.271Z,45.00
2018-05-21T16:32:04.575Z,43.70
2018-05-21T16:34:32.071Z,43.60
2018-05-21T16:36:59.562Z,44.10
2018-05-21T16:39:27.830Z,44.30
2018-05-21T16:41:56.081Z,44.10
2018-05-21T16:44:26.636Z,44.00
2018-05-21T16:46:54.894Z,44.90
2018-05-21T16:49:22.381Z,44.90
2018-05-21T16:51:50.879Z,47.10
2018-05-21T16:54:18.404Z,47.10
2018-05-21T16:56:46.697Z,47.10
2018-05-21T16:59:14.950Z,46.90
2018-05-21T17:01:43.209Z,47.10
2018-05-21T17:04:10.903Z,47.10
2018-05-21T17:06:39.167Z,47.90
2018-05-21T17:09:07.609Z,48.40
2018-05-21T17:11:35.222Z,48.40
2018-05-21T17:14:03.481Z,48.30
2018-05-21T17:16:31.767Z,47.90
2018-05-21T17:19:00.035Z,48.10
2018-05-21T17:21:27.557Z,48.10
2018-05-21T17:23:55.056Z,48.40
2018-05-21T17:26:23.316Z,48.70
2018-05-21T17:28:52.472Z,49.50
2018-05-21T17:31:21.088Z,49.40
2018-05-21T17:33:49.418Z,49.90
2018-05-21T17:36:16.914Z,49.90
2018-05-21T17:38:44.401Z,50.40
2018-05-21T17:41:11.974Z,50.50
2018-05-21T17:43:39.436Z,51.10
2018-05-21T17:46:07.693Z,50.80
2018-05-21T17:48:35.177Z,50.70
2018-05-21T17:51:02.677Z,50.80
2018-05-21T17:53:30.156Z,51.30
2018-05-21T17:55:57.665Z,51.50
2018-05-21T17:58:25.153Z,52.40
2018-05-21T18:00:52.645Z,52.10
2018-05-21T18:03:20.158Z,52.20
2018-05-21T18:05:47.659Z,53.30
2018-05-21T18:08:15.179Z,52.40
2018-05-21T18:10:42.668Z,53.30
2018-05-21T18:13:10.144Z,53.70
2018-05-21T18:15:38.446Z,54.40
2018-05-21T18:18:05.931Z,54.40
2018-05-21T18:20:33.429Z,54.20
2018-05-21T18:23:01.681Z,54.60
2018-05-21T18:25:29.165Z,54.60
2018-05-21T18:27:57.439Z,55.30
2018-05-21T18:30:25.698Z,56.00
2018-05-21T18:32:53.232Z,55.30
2018-05-21T18:35:20.732Z,55.80
2018-05-21T18:37:48.993Z,56.40
2018-05-21T18:40:16.501Z,56.40
2018-05-21T18:42:43.997Z,56.20
2018-05-21T18:45:11.514Z,56.50
2018-05-21T18:47:39.035Z,56.80
2018-05-21T18:50:06.519Z,56.30
2018-05-21T18:52:34.816Z,57.60
2018-05-21T18:55:02.343Z,57.50
2018-05-21T18:57:30.625Z,57.90
2018-05-21T18:59:58.884Z,57.60
2018-05-21T19:02:27.144Z,58.60
2018-05-21T19:04:54.649Z,58.60
2018-05-21T19:07:22.133Z,58.60
2018-05-21T19:09:49.647Z,59.30
2018-05-21T19:12:17.951Z,58.70
2018-05-21T19:14:45.448Z,58.70
2018-05-21T19:17:12.958Z,59.20
2018-05-21T19:19:40.441Z,59.70
2018-05-21T19:22:07.951Z,58.90
2018-05-21T19:24:36.211Z,59.80
2018-05-21T19:27:03.714Z,60.40
2018-05-21T19:29:31.228Z,59.20
2018-05-21T19:31:58.715Z,59.60
2018-05-21T19:34:26.252Z,60.20
2018-05-21T19:36:54.540Z,60.60
2018-05-21T19:39:22.849Z,60.40
2018-05-21T19:41:50.353Z,60.40
2018-05-21T19:44:17.843Z,61.10
2018-05-21T19:46:46.104Z,60.50
2018-05-21T19:49:14.363Z,61.10
2018-05-21T19:51:41.876Z,61.00
2018-05-21T19:54:09.368Z,61.90
2018-05-21T19:56:36.854Z,61.70
2018-05-21T19:59:05.163Z,62.60
2018-05-21T20:01:32.666Z,62.50
2018-05-21T20:04:00.177Z,61.80
2018-05-21T20:06:27.677Z,62.20
2018-05-21T20:08:55.164Z,62.40
2018-05-21T20:11:23.434Z,62.50
2018-05-21T20:13:51.710Z,64.80
2018-05-21T20:16:19.979Z,66.70
2018-05-21T20:18:48.303Z,64.10
2018-05-21T20:21:15.804Z,64.10
2018-05-21T20:23:43.320Z,64.00
2018-05-21T20:26:10.813Z,65.10
2018-05-21T20:28:38.321Z,64.50
2018-05-21T20:31:05.832Z,64.40
2018-05-21T20:33:33.325Z,64.50
2018-05-21T20:36:01.603Z,65.50
2018-05-21T20:38:29.871Z,66.20
2018-05-21T20:40:58.145Z,67.00
2018-05-21T20:43:26.406Z,66.60
2018-05-21T20:45:53.896Z,66.60
2018-05-21T20:48:21.389Z,67.20
2018-05-21T20:50:48.878Z,66.30
2018-05-21T20:53:16.490Z,66.70
2018-05-21T20:55:44.048Z,67.40
2018-05-21T20:58:11.541Z,67.00
2018-05-21T21:00:39.042Z,67.60
2018-05-21T21:03:07.306Z,68.50
2018-05-21T21:05:35.590Z,68.60
2018-05-21T21:08:03.837Z,68.60
2018-05-21T21:10:31.386Z,68.50
2018-05-21T21:12:58.849Z,68.50
2018-05-21T21:15:26.410Z,68.90
2018-05-21T21:17:53.947Z,68.40
2018-05-21T21:20:21.435Z,68.80
2018-05-21T21:22:48.914Z,69.40
2018-05-21T21:25:17.169Z,70.20
2018-05-21T21:27:44.656Z,70.00
2018-05-21T21:30:12.178Z,69.70
2018-05-21T21:32:39.676Z,71.40
2018-05-21T21:35:07.197Z,70.10
2018-05-21T21:37:34.804Z,70.30
2018-05-21T21:40:02.310Z,70.90
2018-05-21T21:42:29.787Z,70.10
2018-05-21T21:44:57.294Z,71.50
2018-05-21T21:47:24.796Z,72.00
2018-05-21T21:49:52.309Z,72.50
2018-05-21T21:52:19.790Z,72.60
2018-05-21T21:54:47.302Z,72.70
2018-05-21T21:57:14.777Z,73.00
2018-05-21T21:59:42.286Z,72.70
2018-05-21T22:02:09.767Z,73.80
2018-05-21T22:04:38.028Z,74.20
2018-05-21T22:07:06.285Z,74.90
2018-05-21T22:09:33.768Z,74.10
2018-05-21T22:12:02.025Z,74.90
2018-05-21T22:14:29.528Z,74.90
2018-05-21T22:16:57.039Z,74.70
2018-05-21T22:19:24.526Z,74.60
2018-05-21T22:21:52.811Z,75.20
2018-05-21T22:24:20.288Z,75.20
2018-05-21T22:26:47.773Z,75.10
2018-05-21T22:29:15.301Z,75.80
2018-05-21T22:31:42.859Z,76.00
2018-05-21T22:34:10.356Z,76.20
2018-05-21T22:36:39.350Z,75.80
2018-05-21T22:39:06.863Z,75.80
2018-05-21T22:41:34.370Z,77.00
2018-05-21T22:44:01.880Z,79.10
2018-05-21T22:46:29.377Z,78.30
2018-05-21T22:48:56.894Z,77.20
2018-05-21T22:51:24.369Z,77.20
2018-05-21T22:53:51.877Z,77.40
2018-05-21T22:56:19.386Z,77.20
2018-05-21T22:58:46.864Z,78.80
2018-05-21T23:01:14.363Z,80.20
2018-05-21T23:03:42.669Z,78.60
2018-05-21T23:06:10.175Z,78.50
2018-05-21T23:08:37.667Z,78.70
2018-05-21T23:11:05.348Z,77.80
2018-05-21T23:13:32.849Z,77.50
2018-05-21T23:16:00.342Z,77.10
2018-05-21T23:18:27.833Z,79.60
2018-05-21T23:20:55.342Z,79.60
2018-05-21T23:23:23.596Z,79.20
2018-05-21T23:25:52.604Z,79.10
2018-05-21T23:28:20.082Z,79.00
2018-05-21T23:30:48.330Z,78.70
2018-05-21T23:33:15.829Z,78.70
2018-05-21T23:35:43.304Z,78.50
2018-05-21T23:38:10.814Z,79.30
2018-05-21T23:40:39.057Z,79.30
2018-05-21T23:43:06.559Z,78.90
2018-05-21T23:45:34.828Z,80.70
2018-05-21T23:48:03.090Z,80.20
2018-05-21T23:50:30.605Z,80.20
2018-05-21T23:52:58.086Z,80.20
2018-05-21T23:55:25.584Z,81.00
2018-05-21T23:57:53.856Z,80.20
